sensor_id;sensor_type;location;lat;lon;timestamp;P1;durP1;ratioP1;P2;durP2;ratioP2
32475;SDS011;18929;48.008;10.882;2022-07-06T00:01:03;3.65;;;0.80;;
32475;SDS011;18929;48.008;10.882;2022-07-06T00:03:30;3.38;;;0.90;;
32475;SDS011;18929;48.008;10.882;2022-07-06T00:05:56;1.85;;;1.00;;
32475;SDS011;18929;48.008;10.882;2022-07-06T00:08:23;1.90;;;0.75;;
32475;SDS011;18929;48.008;10.882;2022-07-06T00:10:50;1.75;;;0.80;;
32475;SDS011;18929;48.008;10.882;2022-07-06T00:13:18;2.47;;;0.80;;
32475;SDS011;18929;48.008;10.882;2022-07-06T00:15:45;1.30;;;0.70;;
32475;SDS011;18929;48.008;10.882;2022-07-06T00:18:12;2.40;;;1.00;;
32475;SDS011;18929;48.008;10.882;2022-07-06T00:20:39;1.63;;;0.77;;
32475;SDS011;18929;48.008;10.882;2022-07-06T00:23:06;2.72;;;0.95;;
32475;SDS011;18929;48.008;10.882;2022-07-06T00:25:33;1.35;;;0.77;;
32475;SDS011;18929;48.008;10.882;2022-07-06T00:27:59;2.92;;;0.85;;
32475;SDS011;18929;48.008;10.882;2022-07-06T00:30:28;2.28;;;0.80;;
32475;SDS011;18929;48.008;10.882;2022-07-06T00:32:55;2.13;;;0.85;;
32475;SDS011;18929;48.008;10.882;2022-07-06T00:35:23;3.15;;;0.70;;
32475;SDS011;18929;48.008;10.882;2022-07-06T00:37:50;0.73;;;0.60;;
32475;SDS011;18929;48.008;10.882;2022-07-06T00:40:17;2.72;;;0.70;;
32475;SDS011;18929;48.008;10.882;2022-07-06T00:42:45;2.03;;;0.80;;
32475;SDS011;18929;48.008;10.882;2022-07-06T00:45:13;3.45;;;0.90;;
32475;SDS011;18929;48.008;10.882;2022-07-06T00:47:42;1.95;;;0.80;;
32475;SDS011;18929;48.008;10.882;2022-07-06T00:50:10;1.58;;;0.75;;
32475;SDS011;18929;48.008;10.882;2022-07-06T00:52:44;2.25;;;0.90;;
32475;SDS011;18929;48.008;10.882;2022-07-06T00:55:12;2.72;;;0.95;;
32475;SDS011;18929;48.008;10.882;2022-07-06T00:57:40;2.00;;;0.90;;
32475;SDS011;18929;48.008;10.882;2022-07-06T01:00:09;1.30;;;0.75;;
32475;SDS011;18929;48.008;10.882;2022-07-06T01:02:38;2.53;;;0.90;;
32475;SDS011;18929;48.008;10.882;2022-07-06T01:05:07;1.83;;;0.80;;
32475;SDS011;18929;48.008;10.882;2022-07-06T01:07:36;3.17;;;0.93;;
32475;SDS011;18929;48.008;10.882;2022-07-06T01:10:05;1.42;;;0.70;;
32475;SDS011;18929;48.008;10.882;2022-07-06T01:12:34;2.03;;;1.00;;
32475;SDS011;18929;48.008;10.882;2022-07-06T01:15:01;2.33;;;0.90;;
32475;SDS011;18929;48.008;10.882;2022-07-06T01:17:30;1.50;;;0.80;;
32475;SDS011;18929;48.008;10.882;2022-07-06T01:19:58;3.22;;;0.90;;
32475;SDS011;18929;48.008;10.882;2022-07-06T01:22:31;2.67;;;0.85;;
32475;SDS011;18929;48.008;10.882;2022-07-06T01:24:58;5.03;;;1.20;;
32475;SDS011;18929;48.008;10.882;2022-07-06T01:27:24;2.30;;;0.90;;
32475;SDS011;18929;48.008;10.882;2022-07-06T01:29:51;2.10;;;0.90;;
32475;SDS011;18929;48.008;10.882;2022-07-06T01:32:18;4.18;;;0.90;;
32475;SDS011;18929;48.008;10.882;2022-07-06T01:34:45;2.03;;;0.90;;
32475;SDS011;18929;48.008;10.882;2022-07-06T01:37:13;2.28;;;1.00;;
32475;SDS011;18929;48.008;10.882;2022-07-06T01:39:40;1.55;;;0.82;;
32475;SDS011;18929;48.008;10.882;2022-07-06T01:42:07;2.58;;;0.80;;
32475;SDS011;18929;48.008;10.882;2022-07-06T01:44:34;2.33;;;0.80;;
32475;SDS011;18929;48.008;10.882;2022-07-06T01:47:01;2.88;;;1.00;;
32475;SDS011;18929;48.008;10.882;2022-07-06T01:49:28;2.63;;;0.82;;
32475;SDS011;18929;48.008;10.882;2022-07-06T01:51:55;3.25;;;1.00;;
32475;SDS011;18929;48.008;10.882;2022-07-06T01:54:23;1.90;;;0.80;;
32475;SDS011;18929;48.008;10.882;2022-07-06T01:56:50;2.17;;;0.88;;
32475;SDS011;18929;48.008;10.882;2022-07-06T01:59:16;2.92;;;0.90;;
32475;SDS011;18929;48.008;10.882;2022-07-06T02:01:43;2.13;;;0.90;;
32475;SDS011;18929;48.008;10.882;2022-07-06T02:04:10;3.38;;;0.90;;
32475;SDS011;18929;48.008;10.882;2022-07-06T02:06:37;2.40;;;1.10;;
32475;SDS011;18929;48.008;10.882;2022-07-06T02:09:04;1.58;;;0.80;;
32475;SDS011;18929;48.008;10.882;2022-07-06T02:11:32;1.52;;;0.90;;
32475;SDS011;18929;48.008;10.882;2022-07-06T02:13:59;2.10;;;0.98;;
32475;SDS011;18929;48.008;10.882;2022-07-06T02:16:26;2.65;;;0.80;;
32475;SDS011;18929;48.008;10.882;2022-07-06T02:18:53;3.10;;;0.70;;
32475;SDS011;18929;48.008;10.882;2022-07-06T02:21:20;1.70;;;0.70;;
32475;SDS011;18929;48.008;10.882;2022-07-06T02:23:47;3.15;;;0.75;;
32475;SDS011;18929;48.008;10.882;2022-07-06T02:26:14;1.15;;;0.70;;
32475;SDS011;18929;48.008;10.882;2022-07-06T02:28:42;3.03;;;1.02;;
32475;SDS011;18929;48.008;10.882;2022-07-06T02:31:10;2.97;;;0.80;;
32475;SDS011;18929;48.008;10.882;2022-07-06T02:33:38;2.85;;;1.05;;
32475;SDS011;18929;48.008;10.882;2022-07-06T02:36:05;3.40;;;0.90;;
32475;SDS011;18929;48.008;10.882;2022-07-06T02:38:32;2.83;;;0.90;;
32475;SDS011;18929;48.008;10.882;2022-07-06T02:40:59;3.10;;;0.90;;
32475;SDS011;18929;48.008;10.882;2022-07-06T02:43:26;1.35;;;0.90;;
32475;SDS011;18929;48.008;10.882;2022-07-06T02:45:54;3.00;;;1.00;;
32475;SDS011;18929;48.008;10.882;2022-07-06T02:48:21;2.85;;;0.90;;
32475;SDS011;18929;48.008;10.882;2022-07-06T02:50:48;1.92;;;0.93;;
32475;SDS011;18929;48.008;10.882;2022-07-06T02:53:15;1.52;;;1.02;;
32475;SDS011;18929;48.008;10.882;2022-07-06T02:55:43;2.10;;;1.02;;
32475;SDS011;18929;48.008;10.882;2022-07-06T02:58:10;1.95;;;1.00;;
32475;SDS011;18929;48.008;10.882;2022-07-06T03:00:37;2.13;;;0.98;;
32475;SDS011;18929;48.008;10.882;2022-07-06T03:03:05;4.15;;;1.20;;
32475;SDS011;18929;48.008;10.882;2022-07-06T03:05:33;2.92;;;1.10;;
32475;SDS011;18929;48.008;10.882;2022-07-06T03:08:00;1.75;;;0.90;;
32475;SDS011;18929;48.008;10.882;2022-07-06T03:10:27;1.33;;;0.98;;
32475;SDS011;18929;48.008;10.882;2022-07-06T03:12:54;3.30;;;1.10;;
32475;SDS011;18929;48.008;10.882;2022-07-06T03:15:21;2.22;;;0.90;;
32475;SDS011;18929;48.008;10.882;2022-07-06T03:17:48;1.95;;;0.90;;
32475;SDS011;18929;48.008;10.882;2022-07-06T03:20:17;1.63;;;1.00;;
32475;SDS011;18929;48.008;10.882;2022-07-06T03:22:43;1.88;;;1.00;;
32475;SDS011;18929;48.008;10.882;2022-07-06T03:25:10;1.30;;;0.90;;
32475;SDS011;18929;48.008;10.882;2022-07-06T03:27:37;2.10;;;1.10;;
32475;SDS011;18929;48.008;10.882;2022-07-06T03:30:04;2.80;;;1.27;;
32475;SDS011;18929;48.008;10.882;2022-07-06T03:32:32;4.47;;;1.48;;
32475;SDS011;18929;48.008;10.882;2022-07-06T03:34:59;2.40;;;1.00;;
32475;SDS011;18929;48.008;10.882;2022-07-06T03:37:27;4.55;;;1.10;;
32475;SDS011;18929;48.008;10.882;2022-07-06T03:39:54;2.75;;;1.17;;
32475;SDS011;18929;48.008;10.882;2022-07-06T03:42:21;3.80;;;1.00;;
32475;SDS011;18929;48.008;10.882;2022-07-06T03:44:48;2.50;;;1.27;;
32475;SDS011;18929;48.008;10.882;2022-07-06T03:47:15;1.65;;;1.00;;
32475;SDS011;18929;48.008;10.882;2022-07-06T03:49:41;3.15;;;1.13;;
32475;SDS011;18929;48.008;10.882;2022-07-06T03:52:08;3.05;;;1.30;;
32475;SDS011;18929;48.008;10.882;2022-07-06T03:54:36;5.63;;;1.30;;
32475;SDS011;18929;48.008;10.882;2022-07-06T03:57:03;2.72;;;1.13;;
32475;SDS011;18929;48.008;10.882;2022-07-06T03:59:37;2.25;;;1.10;;
32475;SDS011;18929;48.008;10.882;2022-07-06T04:02:04;3.30;;;1.13;;
32475;SDS011;18929;48.008;10.882;2022-07-06T04:04:31;2.17;;;1.10;;
32475;SDS011;18929;48.008;10.882;2022-07-06T04:06:59;2.40;;;1.10;;
32475;SDS011;18929;48.008;10.882;2022-07-06T04:09:26;2.00;;;0.93;;
32475;SDS011;18929;48.008;10.882;2022-07-06T04:11:54;2.38;;;1.20;;
32475;SDS011;18929;48.008;10.882;2022-07-06T04:14:21;2.50;;;1.23;;
32475;SDS011;18929;48.008;10.882;2022-07-06T04:16:48;1.92;;;1.00;;
32475;SDS011;18929;48.008;10.882;2022-07-06T04:19:15;1.70;;;1.20;;
32475;SDS011;18929;48.008;10.882;2022-07-06T04:21:42;2.85;;;1.20;;
32475;SDS011;18929;48.008;10.882;2022-07-06T04:24:08;4.00;;;1.33;;
32475;SDS011;18929;48.008;10.882;2022-07-06T04:26:36;4.20;;;1.40;;
32475;SDS011;18929;48.008;10.882;2022-07-06T04:29:05;3.40;;;1.30;;
32475;SDS011;18929;48.008;10.882;2022-07-06T04:31:31;2.55;;;1.20;;
32475;SDS011;18929;48.008;10.882;2022-07-06T04:33:58;3.05;;;1.27;;
32475;SDS011;18929;48.008;10.882;2022-07-06T04:36:25;2.25;;;1.23;;
32475;SDS011;18929;48.008;10.882;2022-07-06T04:38:52;2.88;;;1.33;;
32475;SDS011;18929;48.008;10.882;2022-07-06T04:41:19;2.47;;;1.00;;
32475;SDS011;18929;48.008;10.882;2022-07-06T04:43:46;1.48;;;0.90;;
32475;SDS011;18929;48.008;10.882;2022-07-06T04:46:14;1.75;;;1.00;;
32475;SDS011;18929;48.008;10.882;2022-07-06T04:48:41;3.72;;;1.40;;
32475;SDS011;18929;48.008;10.882;2022-07-06T04:51:08;1.92;;;1.02;;
32475;SDS011;18929;48.008;10.882;2022-07-06T04:53:35;2.10;;;1.02;;
32475;SDS011;18929;48.008;10.882;2022-07-06T04:56:03;2.33;;;1.15;;
32475;SDS011;18929;48.008;10.882;2022-07-06T04:58:30;3.85;;;1.20;;
32475;SDS011;18929;48.008;10.882;2022-07-06T05:00:57;2.28;;;1.10;;
32475;SDS011;18929;48.008;10.882;2022-07-06T05:03:25;3.17;;;1.10;;
32475;SDS011;18929;48.008;10.882;2022-07-06T05:05:52;1.90;;;1.02;;
32475;SDS011;18929;48.008;10.882;2022-07-06T05:08:19;1.95;;;0.90;;
32475;SDS011;18929;48.008;10.882;2022-07-06T05:10:45;1.77;;;0.90;;
32475;SDS011;18929;48.008;10.882;2022-07-06T05:13:13;3.72;;;1.17;;
32475;SDS011;18929;48.008;10.882;2022-07-06T05:15:41;4.97;;;1.10;;
32475;SDS011;18929;48.008;10.882;2022-07-06T05:18:08;2.47;;;0.90;;
32475;SDS011;18929;48.008;10.882;2022-07-06T05:20:36;2.25;;;0.98;;
32475;SDS011;18929;48.008;10.882;2022-07-06T05:23:03;2.67;;;1.17;;
32475;SDS011;18929;48.008;10.882;2022-07-06T05:25:30;3.03;;;1.30;;
32475;SDS011;18929;48.008;10.882;2022-07-06T05:27:57;5.07;;;1.23;;
32475;SDS011;18929;48.008;10.882;2022-07-06T05:30:24;3.28;;;1.27;;
32475;SDS011;18929;48.008;10.882;2022-07-06T05:32:51;1.83;;;1.13;;
32475;SDS011;18929;48.008;10.882;2022-07-06T05:35:19;1.75;;;1.08;;
32475;SDS011;18929;48.008;10.882;2022-07-06T05:37:50;1.98;;;1.13;;
32475;SDS011;18929;48.008;10.882;2022-07-06T05:40:17;6.88;;;1.35;;
32475;SDS011;18929;48.008;10.882;2022-07-06T05:42:44;2.05;;;1.40;;
32475;SDS011;18929;48.008;10.882;2022-07-06T05:45:11;6.88;;;1.85;;
32475;SDS011;18929;48.008;10.882;2022-07-06T05:47:38;5.45;;;1.50;;
32475;SDS011;18929;48.008;10.882;2022-07-06T05:50:22;4.88;;;1.40;;
32475;SDS011;18929;48.008;10.882;2022-07-06T05:52:56;4.20;;;1.60;;
32475;SDS011;18929;48.008;10.882;2022-07-06T05:55:24;3.95;;;1.40;;
32475;SDS011;18929;48.008;10.882;2022-07-06T05:57:51;3.58;;;1.52;;
32475;SDS011;18929;48.008;10.882;2022-07-06T06:00:20;3.17;;;1.67;;
32475;SDS011;18929;48.008;10.882;2022-07-06T06:02:48;4.57;;;1.63;;
32475;SDS011;18929;48.008;10.882;2022-07-06T06:05:15;3.40;;;1.52;;
32475;SDS011;18929;48.008;10.882;2022-07-06T06:07:43;4.50;;;1.75;;
32475;SDS011;18929;48.008;10.882;2022-07-06T06:10:12;5.75;;;1.58;;
32475;SDS011;18929;48.008;10.882;2022-07-06T06:12:41;5.65;;;1.67;;
32475;SDS011;18929;48.008;10.882;2022-07-06T06:15:08;4.65;;;1.67;;
32475;SDS011;18929;48.008;10.882;2022-07-06T06:17:35;5.43;;;2.17;;
32475;SDS011;18929;48.008;10.882;2022-07-06T06:20:04;6.47;;;1.80;;
32475;SDS011;18929;48.008;10.882;2022-07-06T06:22:43;5.53;;;1.75;;
32475;SDS011;18929;48.008;10.882;2022-07-06T06:28:13;4.72;;;1.73;;
32475;SDS011;18929;48.008;10.882;2022-07-06T06:30:40;4.05;;;1.88;;
32475;SDS011;18929;48.008;10.882;2022-07-06T06:33:08;4.55;;;1.90;;
32475;SDS011;18929;48.008;10.882;2022-07-06T06:35:36;3.53;;;1.65;;
32475;SDS011;18929;48.008;10.882;2022-07-06T06:38:04;3.55;;;1.88;;
32475;SDS011;18929;48.008;10.882;2022-07-06T06:40:31;4.55;;;2.08;;
32475;SDS011;18929;48.008;10.882;2022-07-06T06:42:59;6.82;;;2.00;;
32475;SDS011;18929;48.008;10.882;2022-07-06T06:45:26;3.65;;;1.83;;
32475;SDS011;18929;48.008;10.882;2022-07-06T06:47:53;5.13;;;1.92;;
32475;SDS011;18929;48.008;10.882;2022-07-06T06:50:20;5.50;;;2.00;;
32475;SDS011;18929;48.008;10.882;2022-07-06T06:52:48;3.83;;;1.67;;
32475;SDS011;18929;48.008;10.882;2022-07-06T06:55:14;5.70;;;2.00;;
32475;SDS011;18929;48.008;10.882;2022-07-06T06:57:41;4.68;;;1.80;;
32475;SDS011;18929;48.008;10.882;2022-07-06T07:00:10;3.90;;;2.03;;
32475;SDS011;18929;48.008;10.882;2022-07-06T07:02:38;5.70;;;2.15;;
32475;SDS011;18929;48.008;10.882;2022-07-06T07:05:06;4.20;;;2.10;;
32475;SDS011;18929;48.008;10.882;2022-07-06T07:07:33;5.55;;;2.42;;
32475;SDS011;18929;48.008;10.882;2022-07-06T07:10:01;5.75;;;2.13;;
32475;SDS011;18929;48.008;10.882;2022-07-06T07:12:29;8.13;;;2.10;;
32475;SDS011;18929;48.008;10.882;2022-07-06T07:14:56;5.95;;;2.30;;
32475;SDS011;18929;48.008;10.882;2022-07-06T07:17:24;3.72;;;2.03;;
32475;SDS011;18929;48.008;10.882;2022-07-06T07:19:51;5.03;;;2.35;;
32475;SDS011;18929;48.008;10.882;2022-07-06T07:22:17;4.85;;;2.20;;
32475;SDS011;18929;48.008;10.882;2022-07-06T07:24:44;5.80;;;1.77;;
32475;SDS011;18929;48.008;10.882;2022-07-06T07:27:12;4.32;;;2.00;;
32475;SDS011;18929;48.008;10.882;2022-07-06T07:29:39;3.92;;;2.30;;
32475;SDS011;18929;48.008;10.882;2022-07-06T07:32:06;6.47;;;2.17;;
32475;SDS011;18929;48.008;10.882;2022-07-06T07:34:34;3.15;;;1.77;;
32475;SDS011;18929;48.008;10.882;2022-07-06T07:37:02;3.63;;;2.00;;
32475;SDS011;18929;48.008;10.882;2022-07-06T07:39:29;3.97;;;1.60;;
32475;SDS011;18929;48.008;10.882;2022-07-06T07:41:56;3.03;;;1.90;;
32475;SDS011;18929;48.008;10.882;2022-07-06T07:44:23;6.78;;;1.83;;
32475;SDS011;18929;48.008;10.882;2022-07-06T07:46:52;4.75;;;2.38;;
32475;SDS011;18929;48.008;10.882;2022-07-06T07:49:19;3.95;;;1.92;;
32475;SDS011;18929;48.008;10.882;2022-07-06T07:51:47;5.07;;;1.67;;
32475;SDS011;18929;48.008;10.882;2022-07-06T07:54:15;3.97;;;1.95;;
32475;SDS011;18929;48.008;10.882;2022-07-06T07:56:42;3.67;;;1.98;;
32475;SDS011;18929;48.008;10.882;2022-07-06T07:59:09;4.15;;;2.10;;
32475;SDS011;18929;48.008;10.882;2022-07-06T08:01:36;3.53;;;2.15;;
32475;SDS011;18929;48.008;10.882;2022-07-06T08:04:03;3.35;;;1.70;;
32475;SDS011;18929;48.008;10.882;2022-07-06T08:06:30;5.55;;;2.10;;
32475;SDS011;18929;48.008;10.882;2022-07-06T08:08:58;3.35;;;1.70;;
32475;SDS011;18929;48.008;10.882;2022-07-06T08:11:25;4.85;;;2.00;;
32475;SDS011;18929;48.008;10.882;2022-07-06T08:13:52;4.97;;;1.90;;
32475;SDS011;18929;48.008;10.882;2022-07-06T08:16:19;3.20;;;2.00;;
32475;SDS011;18929;48.008;10.882;2022-07-06T08:18:46;4.72;;;2.28;;
32475;SDS011;18929;48.008;10.882;2022-07-06T08:21:13;4.85;;;2.13;;
32475;SDS011;18929;48.008;10.882;2022-07-06T08:23:40;4.90;;;2.22;;
32475;SDS011;18929;48.008;10.882;2022-07-06T08:26:08;3.35;;;1.90;;
32475;SDS011;18929;48.008;10.882;2022-07-06T08:28:35;7.10;;;2.33;;
32475;SDS011;18929;48.008;10.882;2022-07-06T08:31:02;3.90;;;2.15;;
32475;SDS011;18929;48.008;10.882;2022-07-06T08:33:29;4.72;;;1.88;;
32475;SDS011;18929;48.008;10.882;2022-07-06T08:35:55;5.00;;;2.03;;
32475;SDS011;18929;48.008;10.882;2022-07-06T08:38:22;3.50;;;2.00;;
32475;SDS011;18929;48.008;10.882;2022-07-06T08:40:49;5.97;;;2.10;;
32475;SDS011;18929;48.008;10.882;2022-07-06T08:43:18;4.15;;;2.05;;
32475;SDS011;18929;48.008;10.882;2022-07-06T08:45:45;5.63;;;2.00;;
32475;SDS011;18929;48.008;10.882;2022-07-06T08:48:14;3.03;;;1.95;;
32475;SDS011;18929;48.008;10.882;2022-07-06T08:50:41;4.03;;;1.90;;
32475;SDS011;18929;48.008;10.882;2022-07-06T08:53:08;4.88;;;1.70;;
32475;SDS011;18929;48.008;10.882;2022-07-06T08:55:35;4.32;;;1.83;;
32475;SDS011;18929;48.008;10.882;2022-07-06T08:58:02;5.40;;;2.05;;
32475;SDS011;18929;48.008;10.882;2022-07-06T09:00:33;4.13;;;2.20;;
32475;SDS011;18929;48.008;10.882;2022-07-06T09:03:00;2.80;;;1.70;;
32475;SDS011;18929;48.008;10.882;2022-07-06T09:05:28;5.80;;;1.80;;
32475;SDS011;18929;48.008;10.882;2022-07-06T09:07:56;3.78;;;1.90;;
32475;SDS011;18929;48.008;10.882;2022-07-06T09:10:23;5.20;;;2.10;;
32475;SDS011;18929;48.008;10.882;2022-07-06T09:12:51;6.30;;;1.98;;
32475;SDS011;18929;48.008;10.882;2022-07-06T09:15:18;6.35;;;1.80;;
32475;SDS011;18929;48.008;10.882;2022-07-06T09:17:46;4.35;;;2.33;;
32475;SDS011;18929;48.008;10.882;2022-07-06T09:20:13;6.55;;;1.75;;
32475;SDS011;18929;48.008;10.882;2022-07-06T09:22:40;3.45;;;1.60;;
32475;SDS011;18929;48.008;10.882;2022-07-06T09:25:08;4.85;;;1.70;;
32475;SDS011;18929;48.008;10.882;2022-07-06T09:27:37;7.82;;;2.00;;
32475;SDS011;18929;48.008;10.882;2022-07-06T09:30:05;10.05;;;2.10;;
32475;SDS011;18929;48.008;10.882;2022-07-06T09:32:37;4.43;;;1.88;;
32475;SDS011;18929;48.008;10.882;2022-07-06T09:35:07;5.28;;;1.58;;
32475;SDS011;18929;48.008;10.882;2022-07-06T09:37:35;3.67;;;1.80;;
32475;SDS011;18929;48.008;10.882;2022-07-06T09:40:02;2.75;;;2.03;;
32475;SDS011;18929;48.008;10.882;2022-07-06T09:42:43;2.92;;;1.70;;
32475;SDS011;18929;48.008;10.882;2022-07-06T09:45:09;4.57;;;1.90;;
32475;SDS011;18929;48.008;10.882;2022-07-06T09:47:36;6.20;;;1.95;;
32475;SDS011;18929;48.008;10.882;2022-07-06T09:50:04;4.20;;;1.95;;
32475;SDS011;18929;48.008;10.882;2022-07-06T09:52:34;5.20;;;2.22;;
32475;SDS011;18929;48.008;10.882;2022-07-06T09:55:01;3.97;;;1.60;;
32475;SDS011;18929;48.008;10.882;2022-07-06T09:57:42;3.83;;;2.10;;
32475;SDS011;18929;48.008;10.882;2022-07-06T10:00:19;3.15;;;2.03;;
32475;SDS011;18929;48.008;10.882;2022-07-06T10:02:46;3.40;;;2.25;;
32475;SDS011;18929;48.008;10.882;2022-07-06T10:05:16;5.18;;;2.28;;
32475;SDS011;18929;48.008;10.882;2022-07-06T10:07:43;4.57;;;2.08;;
32475;SDS011;18929;48.008;10.882;2022-07-06T10:10:15;5.13;;;2.05;;
32475;SDS011;18929;48.008;10.882;2022-07-06T10:12:43;4.00;;;2.08;;
32475;SDS011;18929;48.008;10.882;2022-07-06T10:15:14;3.15;;;1.92;;
32475;SDS011;18929;48.008;10.882;2022-07-06T10:17:43;6.00;;;2.30;;
32475;SDS011;18929;48.008;10.882;2022-07-06T10:20:11;5.25;;;2.22;;
32475;SDS011;18929;48.008;10.882;2022-07-06T10:22:40;4.47;;;2.10;;
32475;SDS011;18929;48.008;10.882;2022-07-06T10:25:07;6.55;;;1.80;;
32475;SDS011;18929;48.008;10.882;2022-07-06T10:27:34;3.67;;;1.65;;
32475;SDS011;18929;48.008;10.882;2022-07-06T10:30:02;3.60;;;1.48;;
32475;SDS011;18929;48.008;10.882;2022-07-06T10:32:30;3.28;;;1.80;;
32475;SDS011;18929;48.008;10.882;2022-07-06T10:34:57;4.05;;;1.85;;
32475;SDS011;18929;48.008;10.882;2022-07-06T10:37:24;3.75;;;1.67;;
32475;SDS011;18929;48.008;10.882;2022-07-06T10:39:54;4.22;;;2.10;;
32475;SDS011;18929;48.008;10.882;2022-07-06T10:42:38;8.15;;;1.80;;
32475;SDS011;18929;48.008;10.882;2022-07-06T10:45:11;7.63;;;1.70;;
32475;SDS011;18929;48.008;10.882;2022-07-06T10:47:40;2.97;;;1.57;;
32475;SDS011;18929;48.008;10.882;2022-07-06T10:50:08;8.23;;;1.55;;
32475;SDS011;18929;48.008;10.882;2022-07-06T10:52:47;5.18;;;1.63;;
32475;SDS011;18929;48.008;10.882;2022-07-06T10:55:30;3.78;;;1.55;;
32475;SDS011;18929;48.008;10.882;2022-07-06T10:57:58;2.38;;;1.73;;
32475;SDS011;18929;48.008;10.882;2022-07-06T11:00:26;4.10;;;1.90;;
32475;SDS011;18929;48.008;10.882;2022-07-06T11:05:57;3.85;;;1.67;;
32475;SDS011;18929;48.008;10.882;2022-07-06T11:11:16;4.43;;;1.40;;
32475;SDS011;18929;48.008;10.882;2022-07-06T11:13:51;5.63;;;1.70;;
32475;SDS011;18929;48.008;10.882;2022-07-06T11:16:28;3.40;;;1.42;;
32475;SDS011;18929;48.008;10.882;2022-07-06T11:19:00;5.23;;;1.70;;
32475;SDS011;18929;48.008;10.882;2022-07-06T11:21:34;3.92;;;2.05;;
32475;SDS011;18929;48.008;10.882;2022-07-06T11:24:03;4.20;;;1.70;;
32475;SDS011;18929;48.008;10.882;2022-07-06T11:26:33;4.22;;;1.58;;
32475;SDS011;18929;48.008;10.882;2022-07-06T11:29:02;4.18;;;1.48;;
32475;SDS011;18929;48.008;10.882;2022-07-06T11:31:35;4.57;;;1.40;;
32475;SDS011;18929;48.008;10.882;2022-07-06T11:34:03;3.90;;;1.50;;
32475;SDS011;18929;48.008;10.882;2022-07-06T11:36:33;3.88;;;1.83;;
32475;SDS011;18929;48.008;10.882;2022-07-06T11:39:01;4.43;;;1.60;;
32475;SDS011;18929;48.008;10.882;2022-07-06T11:41:30;5.95;;;1.27;;
32475;SDS011;18929;48.008;10.882;2022-07-06T11:43:59;3.17;;;1.50;;
32475;SDS011;18929;48.008;10.882;2022-07-06T11:46:27;2.47;;;1.40;;
32475;SDS011;18929;48.008;10.882;2022-07-06T11:48:55;4.88;;;1.80;;
32475;SDS011;18929;48.008;10.882;2022-07-06T11:51:24;3.75;;;1.88;;
32475;SDS011;18929;48.008;10.882;2022-07-06T11:53:53;2.50;;;1.63;;
32475;SDS011;18929;48.008;10.882;2022-07-06T11:56:22;3.88;;;1.50;;
32475;SDS011;18929;48.008;10.882;2022-07-06T11:58:53;7.80;;;1.77;;
32475;SDS011;18929;48.008;10.882;2022-07-06T12:01:22;4.28;;;1.70;;
32475;SDS011;18929;48.008;10.882;2022-07-06T12:03:49;5.63;;;1.70;;
32475;SDS011;18929;48.008;10.882;2022-07-06T12:06:18;7.60;;;1.88;;
32475;SDS011;18929;48.008;10.882;2022-07-06T12:08:46;2.47;;;1.40;;
32475;SDS011;18929;48.008;10.882;2022-07-06T12:11:21;4.70;;;1.90;;
32475;SDS011;18929;48.008;10.882;2022-07-06T12:13:50;3.40;;;1.20;;
32475;SDS011;18929;48.008;10.882;2022-07-06T12:16:19;3.33;;;1.50;;
32475;SDS011;18929;48.008;10.882;2022-07-06T12:18:48;3.25;;;1.23;;
32475;SDS011;18929;48.008;10.882;2022-07-06T12:21:17;3.65;;;1.45;;
32475;SDS011;18929;48.008;10.882;2022-07-06T12:23:48;3.65;;;1.85;;
32475;SDS011;18929;48.008;10.882;2022-07-06T12:26:17;3.70;;;1.38;;
32475;SDS011;18929;48.008;10.882;2022-07-06T12:28:45;2.55;;;1.40;;
32475;SDS011;18929;48.008;10.882;2022-07-06T12:34:03;2.33;;;1.48;;
32475;SDS011;18929;48.008;10.882;2022-07-06T12:36:30;3.33;;;1.70;;
32475;SDS011;18929;48.008;10.882;2022-07-06T12:38:57;3.08;;;1.55;;
32475;SDS011;18929;48.008;10.882;2022-07-06T12:41:28;3.33;;;1.70;;
32475;SDS011;18929;48.008;10.882;2022-07-06T12:44:05;7.80;;;1.50;;
32475;SDS011;18929;48.008;10.882;2022-07-06T12:46:34;2.75;;;1.40;;
32475;SDS011;18929;48.008;10.882;2022-07-06T12:49:03;6.78;;;1.55;;
32475;SDS011;18929;48.008;10.882;2022-07-06T12:51:48;2.78;;;1.52;;
32475;SDS011;18929;48.008;10.882;2022-07-06T12:54:16;3.55;;;1.40;;
32475;SDS011;18929;48.008;10.882;2022-07-06T12:56:56;2.60;;;1.25;;
32475;SDS011;18929;48.008;10.882;2022-07-06T12:59:24;3.20;;;1.55;;
32475;SDS011;18929;48.008;10.882;2022-07-06T13:01:52;2.90;;;1.52;;
32475;SDS011;18929;48.008;10.882;2022-07-06T13:04:21;3.63;;;1.25;;
32475;SDS011;18929;48.008;10.882;2022-07-06T13:06:48;2.50;;;1.20;;
32475;SDS011;18929;48.008;10.882;2022-07-06T13:09:15;2.75;;;1.20;;
32475;SDS011;18929;48.008;10.882;2022-07-06T13:11:44;3.08;;;1.40;;
32475;SDS011;18929;48.008;10.882;2022-07-06T13:14:11;2.47;;;1.27;;
32475;SDS011;18929;48.008;10.882;2022-07-06T13:16:37;3.65;;;1.30;;
32475;SDS011;18929;48.008;10.882;2022-07-06T13:19:06;2.30;;;1.25;;
32475;SDS011;18929;48.008;10.882;2022-07-06T13:21:33;3.55;;;1.20;;
32475;SDS011;18929;48.008;10.882;2022-07-06T13:24:00;2.78;;;1.20;;
32475;SDS011;18929;48.008;10.882;2022-07-06T13:26:27;1.73;;;1.00;;
32475;SDS011;18929;48.008;10.882;2022-07-06T13:28:54;2.58;;;1.30;;
32475;SDS011;18929;48.008;10.882;2022-07-06T13:31:22;2.08;;;1.13;;
32475;SDS011;18929;48.008;10.882;2022-07-06T13:33:49;3.80;;;1.73;;
32475;SDS011;18929;48.008;10.882;2022-07-06T13:36:17;4.00;;;1.50;;
32475;SDS011;18929;48.008;10.882;2022-07-06T13:38:44;3.33;;;1.30;;
32475;SDS011;18929;48.008;10.882;2022-07-06T13:41:11;2.25;;;1.20;;
32475;SDS011;18929;48.008;10.882;2022-07-06T13:43:37;4.38;;;1.48;;
32475;SDS011;18929;48.008;10.882;2022-07-06T13:46:04;3.92;;;1.33;;
32475;SDS011;18929;48.008;10.882;2022-07-06T13:48:33;7.75;;;1.65;;
32475;SDS011;18929;48.008;10.882;2022-07-06T13:51:00;3.25;;;1.52;;
32475;SDS011;18929;48.008;10.882;2022-07-06T13:53:29;4.47;;;1.20;;
32475;SDS011;18929;48.008;10.882;2022-07-06T13:55:56;3.75;;;1.40;;
32475;SDS011;18929;48.008;10.882;2022-07-06T13:58:23;4.88;;;1.30;;
32475;SDS011;18929;48.008;10.882;2022-07-06T14:00:50;5.88;;;1.40;;
32475;SDS011;18929;48.008;10.882;2022-07-06T14:03:17;6.53;;;1.80;;
32475;SDS011;18929;48.008;10.882;2022-07-06T14:05:46;4.60;;;1.50;;
32475;SDS011;18929;48.008;10.882;2022-07-06T14:08:13;4.57;;;1.50;;
32475;SDS011;18929;48.008;10.882;2022-07-06T14:10:41;3.25;;;1.20;;
32475;SDS011;18929;48.008;10.882;2022-07-06T14:13:08;5.68;;;1.52;;
32475;SDS011;18929;48.008;10.882;2022-07-06T14:15:35;3.15;;;1.40;;
32475;SDS011;18929;48.008;10.882;2022-07-06T14:18:02;3.60;;;1.30;;
32475;SDS011;18929;48.008;10.882;2022-07-06T14:20:29;3.35;;;1.40;;
32475;SDS011;18929;48.008;10.882;2022-07-06T14:22:56;4.82;;;1.25;;
32475;SDS011;18929;48.008;10.882;2022-07-06T14:25:23;3.10;;;1.50;;
32475;SDS011;18929;48.008;10.882;2022-07-06T14:27:51;4.32;;;1.13;;
32475;SDS011;18929;48.008;10.882;2022-07-06T14:30:18;3.58;;;1.20;;
32475;SDS011;18929;48.008;10.882;2022-07-06T14:32:45;2.83;;;1.00;;
32475;SDS011;18929;48.008;10.882;2022-07-06T14:35:12;3.38;;;1.25;;
32475;SDS011;18929;48.008;10.882;2022-07-06T14:37:39;2.28;;;1.20;;
32475;SDS011;18929;48.008;10.882;2022-07-06T14:40:06;2.80;;;1.15;;
32475;SDS011;18929;48.008;10.882;2022-07-06T14:42:34;4.72;;;1.30;;
32475;SDS011;18929;48.008;10.882;2022-07-06T14:45:02;2.13;;;1.38;;
32475;SDS011;18929;48.008;10.882;2022-07-06T14:47:30;5.18;;;1.25;;
32475;SDS011;18929;48.008;10.882;2022-07-06T14:49:56;1.52;;;0.93;;